Decoded Metar for KDCM ( in _UNIDENTIFIED) (IATA:) | Meteo·Mobile Aviation Weather
aviador You're here:

KDCM Decoded Metar

in _UNIDENTIFIED
Report Time2018-11-19 02:55:00
UTC Time2018-11-19 03:05:40
Flight Rules vfr VFR
WindCalm
Visibility9999 m
Phenomena:N/A
Clouds:Overcast 030 Hf
Ceiling3,000 ft
Temp10°C (ISA -4)
Dew Point10°C (100% RH)
QNH1023 hPa
Density Alt43 ft
Elevation656 ft
Report Wrong Elevation
Raw Report
KDCM 190255Z AUTO 00000KT 10SM OVC030 10/10 A3022 RMK AO2=

Extra information for KDCM:More info

Metar Taf Metar & Taf Last 4 Metars F.Rules Stats Wind Profile Meteogram Temp Stats Metar ALERT Operation Metar Decoded Social comments